Time;durP1;ratioP1;P1;durP2;ratioP2;P2;SDS_P1;SDS_P2;PMS_P1;PMS_P2;Temp;Humidity;BMP_temperature;BMP_pressure;BME280_temperature;BME280_humidity;BME280_pressure;Samples;Min_cycle;Max_cycle;Signal;HPM_P1;HPM_P2
2022/01/04 00:00:15;;;;;;;2.23;1.73;;;11.60;99.90;;;;;;5093274;28;20471;-63
2022/01/04 00:02:43;;;;;;;2.60;1.80;;;11.50;99.90;;;;;;5093345;28;20507;-63
2022/01/04 00:05:11;;;;;;;1.70;1.60;;;11.50;99.90;;;;;;5093055;28;20486;-63
2022/01/04 00:07:38;;;;;;;1.93;1.70;;;11.50;99.90;;;;;;5093455;28;20451;-63
2022/01/04 00:10:08;;;;;;;2.53;1.77;;;11.60;99.90;;;;;;5092877;28;20456;-63
2022/01/04 00:15:21;;;;;;;2.17;1.80;;;11.70;99.90;;;;;;5092882;28;20528;-63
2022/01/04 00:17:48;;;;;;;2.30;1.57;;;11.60;99.90;;;;;;5093288;28;20806;-63
2022/01/04 00:20:15;;;;;;;1.97;1.77;;;11.60;99.90;;;;;;5093125;28;20473;-63
2022/01/04 00:22:43;;;;;;;3.50;1.60;;;11.70;99.90;;;;;;5093044;28;20538;-63
2022/01/04 00:25:10;;;;;;;1.97;1.70;;;11.70;99.90;;;;;;5092787;28;20512;-62
2022/01/04 00:27:37;;;;;;;3.03;1.83;;;11.70;99.90;;;;;;5092745;28;20447;-62
2022/01/04 00:30:05;;;;;;;3.97;1.70;;;11.60;99.90;;;;;;5093816;28;20454;-62
2022/01/04 00:32:34;;;;;;;1.80;1.70;;;11.60;99.90;;;;;;5097148;28;20452;-62
2022/01/04 00:35:01;;;;;;;1.90;1.80;;;11.60;99.90;;;;;;5096655;28;21017;-62
2022/01/04 00:37:28;;;;;;;1.90;1.80;;;11.60;99.90;;;;;;5097177;28;20447;-62
2022/01/04 00:39:55;;;;;;;2.80;1.87;;;11.60;99.90;;;;;;5096989;28;20508;-62
2022/01/04 00:42:22;;;;;;;2.17;1.97;;;11.60;99.90;;;;;;5096901;28;20443;-62
2022/01/04 00:44:49;;;;;;;2.30;1.97;;;11.60;99.90;;;;;;5096433;28;20815;-62
2022/01/04 00:47:19;;;;;;;1.80;1.70;;;11.60;99.90;;;;;;5096614;28;20443;-62
2022/01/04 00:49:47;;;;;;;2.03;1.83;;;11.60;99.90;;;;;;5096992;28;20454;-62
2022/01/04 00:52:16;;;;;;;3.53;2.03;;;11.60;99.90;;;;;;5096632;28;20459;-63
2022/01/04 00:54:45;;;;;;;2.43;1.70;;;11.60;99.90;;;;;;5096653;28;20455;-63
2022/01/04 00:57:12;;;;;;;1.50;1.40;;;11.50;99.90;;;;;;5096796;28;20550;-63
2022/01/04 00:59:39;;;;;;;3.00;1.77;;;11.60;99.90;;;;;;5096193;28;20455;-63
2022/01/04 01:02:06;;;;;;;1.73;1.50;;;11.60;99.90;;;;;;5096456;28;20467;-63
2022/01/04 01:04:34;;;;;;;2.73;1.70;;;11.60;99.90;;;;;;5096196;28;20447;-63
2022/01/04 01:07:02;;;;;;;1.37;1.27;;;11.50;99.90;;;;;;5096453;28;20459;-63
2022/01/04 01:09:33;;;;;;;2.80;1.70;;;11.50;99.90;;;;;;5096371;28;20469;-63
2022/01/04 01:12:01;;;;;;;1.60;1.50;;;11.50;99.90;;;;;;5096154;28;20467;-63
2022/01/04 01:14:28;;;;;;;1.73;1.63;;;11.50;99.90;;;;;;5094659;28;20479;-63
2022/01/04 01:16:55;;;;;;;1.70;1.60;;;11.50;99.90;;;;;;5095890;28;20443;-63
2022/01/04 01:19:22;;;;;;;4.40;2.13;;;11.50;99.90;;;;;;5096283;28;20458;-62
2022/01/04 01:21:49;;;;;;;2.40;2.20;;;11.50;99.90;;;;;;5095762;28;20546;-63
2022/01/04 01:24:18;;;;;;;5.27;1.67;;;11.50;99.90;;;;;;5095646;28;20451;-63
2022/01/04 01:26:45;;;;;;;2.07;1.87;;;11.50;99.90;;;;;;5095770;28;20505;-63
2022/01/04 01:29:12;;;;;;;2.70;2.00;;;11.50;99.90;;;;;;5095981;28;20452;-63
2022/01/04 01:31:39;;;;;;;1.70;1.60;;;11.40;99.90;;;;;;5095863;28;20472;-63
2022/01/04 01:34:06;;;;;;;1.70;1.60;;;11.40;99.90;;;;;;5095701;28;20451;-63
2022/01/04 01:36:34;;;;;;;1.80;1.70;;;11.40;99.90;;;;;;5095779;28;20451;-63
2022/01/04 01:39:01;;;;;;;1.70;1.60;;;11.50;99.90;;;;;;5095796;28;20451;-63
2022/01/04 01:41:29;;;;;;;2.00;1.70;;;11.50;99.90;;;;;;5095695;28;20470;-63
2022/01/04 01:43:57;;;;;;;2.33;2.13;;;11.50;99.90;;;;;;5096134;28;20454;-63
2022/01/04 01:46:24;;;;;;;2.10;1.70;;;11.50;99.90;;;;;;5095282;28;20981;-63
2022/01/04 01:48:51;;;;;;;2.10;1.90;;;11.40;99.90;;;;;;5095630;28;20443;-63
2022/01/04 01:51:18;;;;;;;1.83;1.67;;;11.40;99.90;;;;;;5095649;28;20464;-63
2022/01/04 01:53:46;;;;;;;7.10;2.20;;;11.40;99.90;;;;;;5095493;28;20741;-63
2022/01/04 01:56:14;;;;;;;1.90;1.77;;;11.50;99.90;;;;;;5095372;28;20461;-63
2022/01/04 01:58:42;;;;;;;1.90;1.80;;;11.50;99.90;;;;;;5095274;28;20519;-63
2022/01/04 02:01:09;;;;;;;2.20;1.80;;;11.40;99.90;;;;;;5095312;28;20470;-63
2022/01/04 02:03:37;;;;;;;2.90;2.00;;;11.40;99.90;;;;;;5095333;28;20452;-63
2022/01/04 02:06:04;;;;;;;2.87;1.70;;;11.40;99.90;;;;;;5095358;28;20525;-63
2022/01/04 02:08:31;;;;;;;2.33;2.13;;;11.40;99.90;;;;;;5094955;28;20965;-63
2022/01/04 02:10:59;;;;;;;2.13;1.93;;;11.40;99.90;;;;;;5095092;28;20467;-63
2022/01/04 02:13:27;;;;;;;2.93;1.93;;;11.30;99.90;;;;;;5094729;28;20451;-63
2022/01/04 02:15:56;;;;;;;2.00;1.80;;;11.40;99.90;;;;;;5095157;28;20419;-63
2022/01/04 02:18:24;;;;;;;3.60;2.37;;;11.30;99.90;;;;;;5094855;28;20447;-63
2022/01/04 02:20:52;;;;;;;5.33;2.30;;;11.30;99.90;;;;;;5094843;28;20467;-62
2022/01/04 02:23:20;;;;;;;3.50;2.03;;;11.40;99.90;;;;;;5094824;28;20470;-62
2022/01/04 02:25:47;;;;;;;2.13;1.93;;;11.40;99.90;;;;;;5094816;28;20844;-62
2022/01/04 02:28:18;;;;;;;1.97;1.80;;;11.40;99.90;;;;;;5094595;28;20448;-62
2022/01/04 02:30:45;;;;;;;2.00;1.80;;;11.50;99.90;;;;;;5094729;28;20458;-64
2022/01/04 02:33:12;;;;;;;1.93;1.80;;;11.50;99.90;;;;;;5094450;28;20456;-62
2022/01/04 02:35:40;;;;;;;2.97;1.97;;;11.50;99.90;;;;;;5094638;28;20455;-63
2022/01/04 02:38:10;;;;;;;2.40;2.13;;;11.50;99.90;;;;;;5094558;28;21000;-62
2022/01/04 02:40:37;;;;;;;2.30;2.10;;;11.50;99.90;;;;;;5094587;28;20467;-62
2022/01/04 02:43:04;;;;;;;2.40;1.80;;;11.50;99.90;;;;;;5094251;28;20450;-63
2022/01/04 02:45:31;;;;;;;2.80;2.20;;;11.50;99.90;;;;;;5094277;28;20475;-63
2022/01/04 02:47:58;;;;;;;2.80;2.27;;;11.50;99.90;;;;;;5094150;28;20957;-62
2022/01/04 02:50:26;;;;;;;2.53;1.90;;;11.50;99.90;;;;;;5094358;28;20471;-62
2022/01/04 02:52:58;;;;;;;2.10;1.90;;;11.60;99.90;;;;;;5093719;28;20933;-62
2022/01/04 02:55:27;;;;;;;2.33;2.07;;;11.50;99.90;;;;;;5094262;28;20443;-62
2022/01/04 02:57:54;;;;;;;2.33;2.10;;;11.60;99.90;;;;;;5093973;28;20934;-62
2022/01/04 03:00:23;;;;;;;2.50;2.30;;;11.60;99.90;;;;;;5093920;28;20467;-62
2022/01/04 03:02:50;;;;;;;4.13;2.10;;;11.60;99.90;;;;;;5094041;28;20539;-62
2022/01/04 03:05:17;;;;;;;3.03;2.07;;;11.70;99.90;;;;;;5093741;28;20443;-62
2022/01/04 03:07:44;;;;;;;3.13;2.67;;;11.60;99.90;;;;;;5094338;28;20451;-62
2022/01/04 03:10:11;;;;;;;1.97;1.87;;;11.70;99.90;;;;;;5094123;28;20469;-62
2022/01/04 03:12:42;;;;;;;2.60;2.40;;;11.70;99.90;;;;;;5093773;28;20930;-62
2022/01/04 03:15:10;;;;;;;2.40;2.07;;;11.70;99.90;;;;;;5093566;28;20528;-62
2022/01/04 03:17:37;;;;;;;2.30;2.10;;;11.70;99.90;;;;;;5094103;28;20447;-62
2022/01/04 03:20:07;;;;;;;2.60;2.40;;;11.80;99.90;;;;;;5093817;28;20538;-62
2022/01/04 03:22:34;;;;;;;3.27;2.60;;;11.80;99.90;;;;;;5092403;28;20454;-62
2022/01/04 03:25:01;;;;;;;2.30;2.10;;;11.80;99.90;;;;;;5093625;28;20440;-62
2022/01/04 03:27:29;;;;;;;3.27;2.30;;;11.90;99.90;;;;;;5093693;28;20483;-62
2022/01/04 03:29:58;;;;;;;2.30;2.10;;;11.80;99.90;;;;;;5093734;28;20474;-62
2022/01/04 03:32:25;;;;;;;2.90;2.07;;;11.80;99.90;;;;;;5093581;28;20922;-62
2022/01/04 03:34:52;;;;;;;2.40;2.20;;;11.80;99.90;;;;;;5093837;28;20443;-62
2022/01/04 03:37:19;;;;;;;2.17;1.97;;;11.80;99.90;;;;;;5093903;28;20447;-62
2022/01/04 03:39:46;;;;;;;2.23;1.80;;;11.90;99.90;;;;;;5093377;28;20447;-62
2022/01/04 03:42:13;;;;;;;2.77;2.20;;;11.90;99.90;;;;;;5093658;28;20468;-62
2022/01/04 03:44:40;;;;;;;3.00;2.20;;;11.90;99.90;;;;;;5093654;28;20890;-62
2022/01/04 03:47:09;;;;;;;1.80;1.70;;;11.90;99.90;;;;;;5093212;28;20467;-62
2022/01/04 03:49:36;;;;;;;2.43;2.20;;;12.00;99.90;;;;;;5093613;28;20450;-62
2022/01/04 03:52:03;;;;;;;1.83;1.73;;;11.90;99.90;;;;;;5093123;28;20991;-62
2022/01/04 03:54:30;;;;;;;2.30;1.93;;;11.90;99.90;;;;;;5093371;28;20436;-62
2022/01/04 03:56:58;;;;;;;2.73;2.03;;;11.90;99.90;;;;;;5093563;28;20435;-62
2022/01/04 03:59:25;;;;;;;1.83;1.73;;;11.90;99.90;;;;;;5093082;28;20450;-62
2022/01/04 04:01:52;;;;;;;3.00;2.33;;;11.90;99.90;;;;;;5093023;28;20557;-62
2022/01/04 04:04:21;;;;;;;2.20;1.93;;;12.00;99.90;;;;;;5093464;28;20447;-62
2022/01/04 04:06:48;;;;;;;2.00;1.90;;;12.00;99.90;;;;;;5097445;28;20573;-62
2022/01/04 04:09:15;;;;;;;1.70;1.60;;;12.00;99.90;;;;;;5097204;28;20450;-62
2022/01/04 04:11:42;;;;;;;2.13;1.93;;;11.90;99.90;;;;;;5097364;28;20518;-62
2022/01/04 04:14:09;;;;;;;1.70;1.60;;;11.90;99.90;;;;;;5097077;28;20799;-62
2022/01/04 04:16:37;;;;;;;2.67;2.17;;;11.90;99.90;;;;;;5097386;28;20440;-62
2022/01/04 04:19:04;;;;;;;1.70;1.60;;;12.00;99.90;;;;;;5097456;28;20450;-62
2022/01/04 04:21:33;;;;;;;2.13;1.80;;;12.00;99.90;;;;;;5096955;28;20467;-62
2022/01/04 04:24:00;;;;;;;2.10;1.90;;;12.00;99.90;;;;;;5096872;28;20538;-63
2022/01/04 04:26:27;;;;;;;1.67;1.57;;;11.90;99.90;;;;;;5097028;28;20479;-62
2022/01/04 04:28:54;;;;;;;2.37;1.70;;;11.90;99.90;;;;;;5096946;28;20447;-62
2022/01/04 04:31:21;;;;;;;2.10;1.60;;;11.90;99.90;;;;;;5096786;28;20478;-62
2022/01/04 04:33:48;;;;;;;3.10;1.90;;;11.90;99.90;;;;;;5097196;28;20450;-62
2022/01/04 04:36:16;;;;;;;1.60;1.50;;;11.90;99.90;;;;;;5096959;28;20944;-63
2022/01/04 04:38:45;;;;;;;1.73;1.63;;;11.90;99.90;;;;;;5096987;28;20530;-62
2022/01/04 04:41:12;;;;;;;2.10;1.90;;;11.80;99.90;;;;;;5096950;28;20465;-63
2022/01/04 04:43:39;;;;;;;1.93;1.73;;;11.80;99.90;;;;;;5097049;28;20450;-63
2022/01/04 04:46:06;;;;;;;1.83;1.70;;;11.80;99.90;;;;;;5096645;28;20471;-63
2022/01/04 04:48:33;;;;;;;2.07;1.80;;;11.80;99.90;;;;;;5096531;28;20443;-63
2022/01/04 04:51:00;;;;;;;1.97;1.77;;;11.70;99.90;;;;;;5096562;28;20467;-63
2022/01/04 04:53:28;;;;;;;4.00;1.60;;;11.70;99.90;;;;;;5096382;28;20458;-63
2022/01/04 04:55:56;;;;;;;1.77;1.67;;;11.70;99.90;;;;;;5096464;28;20442;-63
2022/01/04 04:58:23;;;;;;;2.07;1.60;;;11.80;99.90;;;;;;5096691;28;20427;-63
2022/01/04 05:00:50;;;;;;;2.60;2.10;;;11.80;99.90;;;;;;5096480;28;20467;-63
2022/01/04 05:03:17;;;;;;;1.70;1.60;;;11.80;99.90;;;;;;5096540;28;20447;-63
2022/01/04 05:05:45;;;;;;;2.13;1.53;;;11.70;99.90;;;;;;5096367;28;20549;-63
2022/01/04 05:08:12;;;;;;;2.10;1.70;;;11.70;99.90;;;;;;5096343;28;20479;-63
2022/01/04 05:10:39;;;;;;;1.43;1.33;;;11.70;99.90;;;;;;5096010;28;20852;-63
2022/01/04 05:13:07;;;;;;;2.20;1.90;;;11.70;99.90;;;;;;5096358;28;20808;-63
2022/01/04 05:15:35;;;;;;;2.63;1.70;;;11.70;99.90;;;;;;5095267;28;20503;-63
2022/01/04 05:18:02;;;;;;;2.10;1.90;;;11.70;99.90;;;;;;5096086;28;20439;-63
2022/01/04 05:20:29;;;;;;;1.90;1.70;;;11.70;99.90;;;;;;5095991;28;21010;-63
2022/01/04 05:22:57;;;;;;;1.97;1.87;;;11.60;99.90;;;;;;5095971;28;20780;-63
2022/01/04 05:25:24;;;;;;;2.10;1.87;;;11.70;99.90;;;;;;5095758;28;20455;-63
2022/01/04 05:27:51;;;;;;;2.10;1.90;;;11.70;99.90;;;;;;5096148;28;20505;-63
2022/01/04 05:30:20;;;;;;;1.70;1.60;;;11.70;99.90;;;;;;5095906;28;20475;-63
2022/01/04 05:32:47;;;;;;;1.70;1.60;;;11.70;99.90;;;;;;5095773;28;20424;-64
2022/01/04 05:35:14;;;;;;;2.03;1.90;;;11.70;99.90;;;;;;5096099;28;20538;-64
2022/01/04 05:37:41;;;;;;;2.90;1.80;;;11.70;99.90;;;;;;5096092;28;20451;-63
2022/01/04 05:40:10;;;;;;;4.37;2.20;;;11.70;99.90;;;;;;5095438;28;20457;-63
2022/01/04 05:42:37;;;;;;;2.13;1.60;;;11.70;99.90;;;;;;5095747;28;20450;-63
2022/01/04 05:45:05;;;;;;;2.40;1.70;;;11.60;99.90;;;;;;5095504;28;20462;-63
2022/01/04 05:47:33;;;;;;;2.17;1.97;;;11.60;99.90;;;;;;5095225;28;20485;-63
2022/01/04 05:50:01;;;;;;;2.20;1.90;;;11.50;99.90;;;;;;5095263;28;20530;-63
2022/01/04 05:52:28;;;;;;;2.00;1.80;;;11.60;99.90;;;;;;5095412;28;20539;-61
2022/01/04 05:54:55;;;;;;;2.03;1.77;;;11.50;99.90;;;;;;5095410;28;20448;-63
2022/01/04 05:57:22;;;;;;;3.00;1.90;;;11.50;99.90;;;;;;5095299;28;20436;-63
2022/01/04 05:59:49;;;;;;;2.37;1.70;;;11.60;99.90;;;;;;5095233;28;20451;-64
2022/01/04 06:02:16;;;;;;;1.63;1.53;;;11.60;99.90;;;;;;5095396;28;20443;-63
2022/01/04 06:04:45;;;;;;;2.37;2.20;;;11.60;99.90;;;;;;5095063;28;20813;-64
2022/01/04 06:07:12;;;;;;;2.20;2.00;;;11.60;99.90;;;;;;5095458;28;20480;-63
2022/01/04 06:09:43;;;;;;;1.93;1.83;;;11.60;99.90;;;;;;5095245;28;20454;-63
2022/01/04 06:14:58;;;;;;;2.10;2.00;;;11.60;99.90;;;;;;5094763;28;20486;-63
2022/01/04 06:17:28;;;;;;;2.63;2.07;;;11.70;99.90;;;;;;5094958;28;20937;-63
2022/01/04 06:19:58;;;;;;;1.90;1.70;;;11.60;99.90;;;;;;5095058;28;20436;-63
2022/01/04 06:22:25;;;;;;;1.87;1.77;;;11.60;99.90;;;;;;5094611;28;20451;-64
2022/01/04 06:24:53;;;;;;;4.60;1.93;;;11.60;99.90;;;;;;5094959;28;20466;-64
2022/01/04 06:27:20;;;;;;;1.67;1.57;;;11.60;99.90;;;;;;5093813;28;20479;-64
2022/01/04 06:29:47;;;;;;;1.93;1.80;;;11.60;99.90;;;;;;5094614;28;20531;-63
2022/01/04 06:32:15;;;;;;;2.17;1.97;;;11.60;99.90;;;;;;5094643;28;20789;-63
2022/01/04 06:34:44;;;;;;;3.30;1.63;;;11.60;99.90;;;;;;5094838;28;20443;-63
2022/01/04 06:37:14;;;;;;;1.73;1.50;;;11.60;99.90;;;;;;5094904;28;20439;-64
2022/01/04 06:39:41;;;;;;;2.30;2.10;;;11.70;99.90;;;;;;5094677;28;20450;-64
2022/01/04 06:42:08;;;;;;;2.17;1.97;;;11.60;99.90;;;;;;5094458;28;20474;-63
2022/01/04 06:44:36;;;;;;;1.80;1.70;;;11.60;99.90;;;;;;5094309;28;20919;-63
2022/01/04 06:47:03;;;;;;;1.80;1.70;;;11.60;99.90;;;;;;5094427;28;20479;-63
2022/01/04 06:49:30;;;;;;;3.00;2.07;;;11.70;99.90;;;;;;5094571;28;20443;-64
2022/01/04 06:51:57;;;;;;;2.13;1.70;;;11.80;99.90;;;;;;5094252;28;20464;-63
2022/01/04 06:54:26;;;;;;;1.63;1.53;;;11.70;99.90;;;;;;5094319;28;20530;-64
2022/01/04 06:56:53;;;;;;;1.70;1.60;;;11.70;99.90;;;;;;5094380;28;20439;-64
2022/01/04 06:59:21;;;;;;;2.40;2.20;;;11.70;99.90;;;;;;5094152;28;20456;-64
2022/01/04 07:01:48;;;;;;;2.23;1.90;;;11.70;99.90;;;;;;5094290;28;21039;-64
2022/01/04 07:04:16;;;;;;;2.23;1.97;;;11.70;99.90;;;;;;5094135;28;20446;-63
2022/01/04 07:06:43;;;;;;;2.23;2.03;;;11.70;99.90;;;;;;5094273;28;20460;-64
2022/01/04 07:09:10;;;;;;;2.00;1.80;;;11.70;99.90;;;;;;5093793;28;20447;-64
2022/01/04 07:11:39;;;;;;;2.90;1.80;;;11.70;99.90;;;;;;5093595;28;20467;-63
2022/01/04 07:14:07;;;;;;;1.87;1.73;;;11.70;99.90;;;;;;5093635;28;20485;-64
2022/01/04 07:16:34;;;;;;;1.73;1.63;;;11.70;99.90;;;;;;5094051;28;20527;-64
2022/01/04 07:19:01;;;;;;;2.20;2.00;;;11.70;99.90;;;;;;5093955;28;20451;-64
2022/01/04 07:21:28;;;;;;;1.97;1.87;;;11.80;99.90;;;;;;5093621;28;20470;-64
2022/01/04 07:23:55;;;;;;;2.03;1.70;;;11.70;99.90;;;;;;5093484;28;20927;-63
2022/01/04 07:26:24;;;;;;;2.53;1.80;;;11.60;99.90;;;;;;5093567;28;20505;-63
2022/01/04 07:28:52;;;;;;;1.50;1.40;;;11.70;99.90;;;;;;5093530;28;20475;-63
2022/01/04 07:31:20;;;;;;;2.37;2.00;;;11.70;99.90;;;;;;5093440;28;20493;-63
2022/01/04 07:33:47;;;;;;;2.43;1.77;;;11.70;99.90;;;;;;5093383;28;20953;-63
2022/01/04 07:36:15;;;;;;;2.73;1.90;;;11.70;99.90;;;;;;5093840;28;20562;-63
2022/01/04 07:38:43;;;;;;;1.80;1.70;;;11.70;99.90;;;;;;5093549;28;20447;-63
2022/01/04 07:41:10;;;;;;;1.53;1.43;;;11.80;99.90;;;;;;5093183;28;20505;-63
2022/01/04 07:43:37;;;;;;;6.10;1.80;;;11.90;99.90;;;;;;5093479;28;20447;-63
2022/01/04 07:46:06;;;;;;;3.03;2.00;;;12.00;99.90;;;;;;5093748;28;20526;-63
2022/01/04 07:48:33;;;;;;;3.00;2.07;;;12.10;99.90;;;;;;5093478;28;20486;-63
2022/01/04 07:51:01;;;;;;;1.40;1.30;;;12.00;99.90;;;;;;5093079;28;20473;-63
2022/01/04 07:53:28;;;;;;;1.93;1.83;;;12.10;99.90;;;;;;5093522;28;20451;-63
2022/01/04 07:55:56;;;;;;;1.80;1.63;;;12.10;99.90;;;;;;5093320;28;20462;-63
2022/01/04 07:58:23;;;;;;;2.17;1.97;;;12.20;99.90;;;;;;5093067;28;20439;-63
2022/01/04 08:00:50;;;;;;;3.87;2.17;;;12.30;99.90;;;;;;5093212;28;20475;-63
2022/01/04 08:03:19;;;;;;;4.53;2.00;;;12.30;99.90;;;;;;5093074;28;20428;-63
2022/01/04 08:05:46;;;;;;;2.00;1.60;;;12.40;99.90;;;;;;5092960;28;20500;-63
2022/01/04 08:08:13;;;;;;;2.33;2.10;;;12.50;99.90;;;;;;5093327;28;20558;-63
2022/01/04 08:10:41;;;;;;;1.37;1.27;;;12.50;99.90;;;;;;5093225;28;20463;-63
2022/01/04 08:13:08;;;;;;;2.23;1.40;;;12.50;99.90;;;;;;5092847;28;20960;-63
2022/01/04 08:15:35;;;;;;;2.10;1.57;;;12.50;99.90;;;;;;5092880;28;20493;-63
2022/01/04 08:18:02;;;;;;;2.60;1.60;;;12.50;99.90;;;;;;5092984;28;20933;-63
2022/01/04 08:20:30;;;;;;;1.83;1.73;;;12.50;99.90;;;;;;5092888;28;20974;-63
2022/01/04 08:22:59;;;;;;;2.83;1.70;;;12.50;99.90;;;;;;5093343;28;20491;-63
2022/01/04 08:25:26;;;;;;;1.53;1.43;;;12.50;99.90;;;;;;5093186;28;20482;-63
2022/01/04 08:27:53;;;;;;;1.67;1.57;;;12.60;99.90;;;;;;5093093;28;20578;-63
2022/01/04 08:30:21;;;;;;;1.93;1.60;;;12.60;99.90;;;;;;5092807;28;20467;-63
2022/01/04 08:32:48;;;;;;;1.80;1.43;;;12.60;99.90;;;;;;5093116;28;20444;-63
2022/01/04 08:35:15;;;;;;;1.90;1.50;;;12.60;99.90;;;;;;5092824;28;20444;-63
2022/01/04 08:37:43;;;;;;;5.33;2.20;;;12.70;99.90;;;;;;5093208;28;20447;-63
2022/01/04 08:40:11;;;;;;;2.07;1.63;;;12.70;99.90;;;;;;5092759;28;20916;-63
2022/01/04 08:42:39;;;;;;;5.10;2.10;;;12.70;99.90;;;;;;5092895;28;20454;-63
2022/01/04 08:45:08;;;;;;;2.70;1.73;;;12.70;99.90;;;;;;5092564;28;20443;-63
2022/01/04 08:47:36;;;;;;;1.50;1.40;;;12.70;99.90;;;;;;5093025;28;20479;-63
2022/01/04 08:50:05;;;;;;;2.10;1.70;;;12.70;99.90;;;;;;5092897;28;20443;-64
2022/01/04 08:52:32;;;;;;;2.00;1.70;;;12.70;99.90;;;;;;5096383;28;20447;-63
2022/01/04 08:55:01;;;;;;;1.70;1.60;;;12.70;99.90;;;;;;5096395;28;20466;-63
2022/01/04 08:57:29;;;;;;;2.10;1.97;;;12.80;99.90;;;;;;5096616;28;20479;-63
2022/01/04 08:59:57;;;;;;;2.17;2.00;;;12.80;99.90;;;;;;5096246;28;20929;-63
2022/01/04 09:02:25;;;;;;;1.50;1.40;;;12.80;99.90;;;;;;5096234;28;20490;-62
2022/01/04 09:04:52;;;;;;;2.30;1.50;;;12.90;99.90;;;;;;5096512;28;20447;-63
2022/01/04 09:07:20;;;;;;;1.70;1.60;;;12.80;99.90;;;;;;5096598;28;20506;-62
2022/01/04 09:09:49;;;;;;;2.73;1.93;;;12.90;99.90;;;;;;5096304;28;20993;-62
2022/01/04 09:12:18;;;;;;;1.90;1.80;;;12.90;99.90;;;;;;5096370;28;20534;-62
2022/01/04 09:14:56;;;;;;;1.80;1.70;;;12.90;99.90;;;;;;5095718;28;20479;-62
2022/01/04 09:20:10;;;;;;;4.43;1.80;;;;;;;;;;5095628;28;20565;-63
2022/01/04 09:22:38;;;;;;;1.80;1.70;;;13.00;99.90;;;;;;5095677;28;20447;-63
2022/01/04 09:25:08;;;;;;;2.13;1.93;;;13.00;99.90;;;;;;5095870;28;20454;-63
2022/01/04 09:27:37;;;;;;;3.70;1.80;;;13.00;99.90;;;;;;5095988;28;20841;-63
2022/01/04 09:30:06;;;;;;;2.17;1.63;;;12.90;99.90;;;;;;5095953;28;20456;-64
2022/01/04 09:32:35;;;;;;;2.03;1.60;;;12.90;99.90;;;;;;5096147;28;20436;-64
2022/01/04 09:35:03;;;;;;;1.50;1.37;;;12.90;99.90;;;;;;5095594;28;20454;-63
2022/01/04 09:37:30;;;;;;;3.30;1.67;;;12.90;99.90;;;;;;5096158;28;20553;-64
2022/01/04 09:39:58;;;;;;;1.87;1.77;;;12.90;99.90;;;;;;5095652;28;20534;-64
2022/01/04 09:42:25;;;;;;;1.70;1.60;;;12.80;99.90;;;;;;5095732;28;20446;-62
2022/01/04 09:44:53;;;;;;;1.50;1.37;;;12.80;99.90;;;;;;5095358;28;20487;-62
2022/01/04 09:47:20;;;;;;;1.97;1.80;;;12.80;99.90;;;;;;5095651;28;20470;-62
2022/01/04 09:49:48;;;;;;;2.07;1.67;;;12.80;99.90;;;;;;5095502;28;20448;-62
2022/01/04 09:52:19;;;;;;;2.10;1.90;;;12.70;99.90;;;;;;5095191;28;21009;-62
2022/01/04 09:54:50;;;;;;;2.03;1.63;;;12.70;99.90;;;;;;5095243;28;20432;-62
2022/01/04 09:57:17;;;;;;;3.13;2.10;;;12.70;99.90;;;;;;5095388;28;20451;-62
2022/01/04 09:59:44;;;;;;;2.17;1.63;;;12.70;99.90;;;;;;5095419;28;20522;-64
2022/01/04 10:02:18;;;;;;;2.40;1.67;;;12.80;99.90;;;;;;5095335;28;20478;-62
2022/01/04 10:04:45;;;;;;;1.50;1.40;;;12.80;99.90;;;;;;5095375;28;20424;-63
2022/01/04 10:07:12;;;;;;;1.93;1.70;;;12.80;99.90;;;;;;5095516;28;20846;-63
2022/01/04 10:09:45;;;;;;;2.27;2.17;;;12.80;99.90;;;;;;5094997;28;20511;-62
2022/01/04 10:12:14;;;;;;;2.23;1.67;;;12.80;99.90;;;;;;5094812;28;20543;-62
2022/01/04 10:14:43;;;;;;;2.30;1.73;;;12.90;99.90;;;;;;5094720;28;20869;-62
2022/01/04 10:17:13;;;;;;;2.57;1.90;;;12.90;99.90;;;;;;5095203;28;20506;-63
2022/01/04 10:19:44;;;;;;;2.00;1.80;;;12.90;99.90;;;;;;5095128;28;20428;-62
2022/01/04 10:22:24;;;;;;;2.50;1.50;;;12.80;99.90;;;;;;5095012;28;20871;-62
2022/01/04 10:25:07;;;;;;;2.17;1.80;;;12.80;99.90;;;;;;5095062;28;20435;-62
2022/01/04 10:27:35;;;;;;;1.80;1.70;;;12.80;99.90;;;;;;5094192;28;21000;-62
2022/01/04 10:30:16;;;;;;;3.30;1.80;;;12.80;99.90;;;;;;5094703;28;20544;-62
2022/01/04 10:32:45;;;;;;;1.93;1.80;;;12.90;99.90;;;;;;5094517;28;20431;-63
2022/01/04 10:35:21;;;;;;;2.67;1.90;;;13.00;99.90;;;;;;5094638;28;20484;-62
2022/01/04 10:37:48;;;;;;;2.53;2.07;;;13.10;99.90;;;;;;5094646;28;20879;-62
2022/01/04 10:40:15;;;;;;;2.97;1.90;;;13.20;99.90;;;;;;5094761;28;20551;-62
2022/01/04 10:42:43;;;;;;;3.03;1.90;;;13.20;99.90;;;;;;5094606;28;20780;-63
2022/01/04 10:45:41;;;;;;;2.13;1.93;;;13.20;99.90;;;;;;5094496;28;20479;-62
2022/01/04 10:48:17;;;;;;;2.83;2.17;;;13.10;99.90;;;;;;5031961;28;20477;-62
2022/01/04 10:50:47;;;;;;;5.13;2.20;;;13.10;99.90;;;;;;5083988;28;20471;-63
2022/01/04 10:53:17;;;;;;;5.33;2.83;;;13.10;99.90;;;;;;5094225;28;20982;-62
2022/01/04 10:55:46;;;;;;;1.60;1.50;;;13.20;99.90;;;;;;5094415;28;20526;-62
2022/01/04 10:58:21;;;;;;;5.00;2.20;;;13.10;99.90;;;;;;5093821;28;20914;-62
2022/01/04 11:00:54;;;;;;;3.30;2.30;;;13.00;99.90;;;;;;5093938;28;20521;-62
2022/01/04 11:03:28;;;;;;;2.53;2.27;;;13.10;99.90;;;;;;5093964;28;20434;-64
2022/01/04 11:06:00;;;;;;;4.37;2.20;;;13.10;99.90;;;;;;5093832;28;20538;-63
2022/01/04 11:08:28;;;;;;;5.90;2.03;;;13.10;99.90;;;;;;5093758;28;21044;-63
2022/01/04 11:10:55;;;;;;;5.10;2.90;;;13.10;99.90;;;;;;5094042;28;20467;-63
2022/01/04 11:13:23;;;;;;;4.47;2.37;;;13.20;99.90;;;;;;5093061;28;20486;-63
2022/01/04 11:15:51;;;;;;;2.30;2.07;;;13.30;99.90;;;;;;5093840;28;20517;-63
2022/01/04 11:18:18;;;;;;;3.40;2.20;;;13.30;99.90;;;;;;5093530;28;20475;-63
2022/01/04 11:20:46;;;;;;;4.07;2.20;;;13.30;99.90;;;;;;5093813;28;20823;-64
2022/01/04 11:23:16;;;;;;;3.07;1.93;;;13.50;99.90;;;;;;5093871;28;20451;-63
2022/01/04 11:25:45;;;;;;;2.87;2.07;;;13.50;99.90;;;;;;5093778;28;20447;-63
2022/01/04 11:28:15;;;;;;;3.67;2.17;;;13.30;99.90;;;;;;5093448;28;21020;-63
2022/01/04 11:30:55;;;;;;;3.10;2.40;;;13.20;99.90;;;;;;5093895;28;20523;-63
2022/01/04 11:33:27;;;;;;;2.00;1.80;;;13.20;99.90;;;;;;5093465;28;20431;-63
2022/01/04 11:35:56;;;;;;;5.40;2.10;;;13.20;99.90;;;;;;5093399;28;20458;-63
2022/01/04 11:38:35;;;;;;;2.10;1.90;;;13.10;99.90;;;;;;5093603;28;20436;-63
2022/01/04 11:41:04;;;;;;;2.73;2.20;;;13.10;99.90;;;;;;5093176;28;20498;-63
2022/01/04 11:43:33;;;;;;;1.97;1.80;;;13.10;99.90;;;;;;5093420;28;20454;-63
2022/01/04 11:46:01;;;;;;;2.27;1.80;;;13.00;99.90;;;;;;5093721;28;20536;-63
2022/01/04 11:48:32;;;;;;;2.70;2.27;;;13.00;99.90;;;;;;5093250;28;20485;-63
2022/01/04 11:51:01;;;;;;;2.70;2.20;;;12.90;99.90;;;;;;5093607;28;20471;-63
2022/01/04 11:53:28;;;;;;;2.60;2.00;;;12.90;99.90;;;;;;5093429;28;20526;-63
2022/01/04 11:56:00;;;;;;;2.43;2.23;;;12.90;99.90;;;;;;5093372;28;20454;-63
2022/01/04 11:58:42;;;;;;;2.97;2.00;;;12.90;99.90;;;;;;5093163;28;20432;-63
2022/01/04 12:01:11;;;;;;;5.87;1.87;;;12.90;99.90;;;;;;5093534;28;20467;-63
2022/01/04 12:03:43;;;;;;;3.10;1.80;;;12.80;99.90;;;;;;5093197;28;20531;-63
2022/01/04 12:06:12;;;;;;;2.07;1.80;;;12.90;99.90;;;;;;5093157;28;20465;-63
2022/01/04 12:08:41;;;;;;;2.60;2.10;;;12.90;99.90;;;;;;5093216;28;20479;-63
2022/01/04 12:11:38;;;;;;;3.70;2.00;;;12.90;99.90;;;;;;5093269;28;20467;-63
2022/01/04 12:14:21;;;;;;;2.50;2.30;;;12.80;99.90;;;;;;5092758;28;20481;-63
2022/01/04 12:17:00;;;;;;;3.97;2.20;;;12.80;99.90;;;;;;5092898;28;20434;-63
2022/01/04 12:19:46;;;;;;;2.27;2.07;;;12.80;99.90;;;;;;5093231;28;20441;-63
2022/01/04 12:22:13;;;;;;;3.37;2.30;;;12.80;99.90;;;;;;5092897;28;20470;-63
2022/01/04 12:24:46;;;;;;;2.63;2.33;;;12.90;99.90;;;;;;5092776;28;21037;-63
2022/01/04 12:27:16;;;;;;;2.47;2.27;;;12.80;99.90;;;;;;5096147;28;20486;-63
2022/01/04 12:29:43;;;;;;;2.03;1.93;;;12.90;99.90;;;;;;5097095;28;20479;-63
2022/01/04 12:32:21;;;;;;;4.13;2.73;;;12.90;99.90;;;;;;5096880;28;20507;-63
2022/01/04 12:34:51;;;;;;;2.90;2.60;;;12.90;99.90;;;;;;5097307;28;20434;-63
2022/01/04 12:37:19;;;;;;;5.23;2.17;;;12.90;99.90;;;;;;5097104;28;20458;-63
2022/01/04 12:39:49;;;;;;;2.77;2.50;;;12.90;99.90;;;;;;5096692;28;20972;-63
2022/01/04 12:42:19;;;;;;;3.73;2.63;;;12.80;99.90;;;;;;5096537;28;20458;-64
2022/01/04 12:44:58;;;;;;;3.43;2.10;;;12.80;99.90;;;;;;5096497;28;20938;-64
2022/01/04 12:47:26;;;;;;;3.43;2.93;;;12.90;99.90;;;;;;5096902;28;20524;-63
2022/01/04 12:49:54;;;;;;;8.40;2.63;;;12.80;99.90;;;;;;5096546;28;20509;-63
2022/01/04 12:52:21;;;;;;;2.93;2.50;;;12.80;99.90;;;;;;5096509;28;20789;-63
2022/01/04 12:54:49;;;;;;;3.47;2.73;;;12.90;99.90;;;;;;5096207;28;20859;-62
2022/01/04 12:57:19;;;;;;;4.93;4.00;;;12.80;99.90;;;;;;5096301;28;20447;-63
2022/01/04 12:59:48;;;;;;;3.50;2.50;;;12.70;99.90;;;;;;5096806;28;20432;-63
2022/01/04 13:02:19;;;;;;;3.83;2.47;;;12.80;99.90;;;;;;5096510;28;20593;-63